sensor_id;sensor_type;location;lat;lon;timestamp;temperature;humidity
20366;DHT22;10341;49.894;8.822;2024-03-23T00:56:13;7.60;99.90
20366;DHT22;10341;49.894;8.822;2024-03-23T01:01:33;7.70;99.90
20366;DHT22;10341;49.894;8.822;2024-03-23T01:06:52;7.80;99.90
20366;DHT22;10341;49.894;8.822;2024-03-23T01:12:11;7.80;99.90
20366;DHT22;10341;49.894;8.822;2024-03-23T01:17:31;7.80;99.90
20366;DHT22;10341;49.894;8.822;2024-03-23T01:22:50;7.80;99.90
20366;DHT22;10341;49.894;8.822;2024-03-23T01:28:10;7.80;99.90
20366;DHT22;10341;49.894;8.822;2024-03-23T01:33:30;7.80;99.90
20366;DHT22;10341;49.894;8.822;2024-03-23T01:38:49;7.90;99.90
20366;DHT22;10341;49.894;8.822;2024-03-23T01:44:09;7.90;99.90
20366;DHT22;10341;49.894;8.822;2024-03-23T01:49:28;8.00;99.90
20366;DHT22;10341;49.894;8.822;2024-03-23T01:54:48;8.00;99.90
20366;DHT22;10341;49.894;8.822;2024-03-23T02:00:07;8.10;99.90
20366;DHT22;10341;49.894;8.822;2024-03-23T02:05:34;8.10;99.90
20366;DHT22;10341;49.894;8.822;2024-03-23T02:10:54;8.20;99.90
20366;DHT22;10341;49.894;8.822;2024-03-23T02:16:13;8.20;99.90
20366;DHT22;10341;49.894;8.822;2024-03-23T02:21:33;8.30;99.90
20366;DHT22;10341;49.894;8.822;2024-03-23T02:26:52;8.30;99.90
20366;DHT22;10341;49.894;8.822;2024-03-23T02:32:12;8.40;99.90
20366;DHT22;10341;49.894;8.822;2024-03-23T02:37:31;8.60;99.90
20366;DHT22;10341;49.894;8.822;2024-03-23T02:42:52;9.00;99.90
20366;DHT22;10341;49.894;8.822;2024-03-23T02:48:11;9.30;99.90
20366;DHT22;10341;49.894;8.822;2024-03-23T02:53:30;9.70;99.90
20366;DHT22;10341;49.894;8.822;2024-03-23T02:58:50;9.90;99.90
20366;DHT22;10341;49.894;8.822;2024-03-23T03:04:09;10.20;99.90
20366;DHT22;10341;49.894;8.822;2024-03-23T03:09:29;10.40;99.90
20366;DHT22;10341;49.894;8.822;2024-03-23T03:14:49;10.50;99.90
20366;DHT22;10341;49.894;8.822;2024-03-23T03:20:08;10.60;99.90
20366;DHT22;10341;49.894;8.822;2024-03-23T03:25:32;10.70;99.90
20366;DHT22;10341;49.894;8.822;2024-03-23T03:30:52;10.70;99.90
20366;DHT22;10341;49.894;8.822;2024-03-23T03:36:11;10.80;99.90
20366;DHT22;10341;49.894;8.822;2024-03-23T03:41:31;10.90;99.90
20366;DHT22;10341;49.894;8.822;2024-03-23T03:46:51;10.90;99.90
20366;DHT22;10341;49.894;8.822;2024-03-23T03:52:10;11.00;99.90
20366;DHT22;10341;49.894;8.822;2024-03-23T03:57:30;11.10;99.90
20366;DHT22;10341;49.894;8.822;2024-03-23T04:02:49;11.30;99.90
20366;DHT22;10341;49.894;8.822;2024-03-23T04:08:09;11.50;99.90
20366;DHT22;10341;49.894;8.822;2024-03-23T04:13:29;11.60;99.90
20366;DHT22;10341;49.894;8.822;2024-03-23T04:18:48;11.60;99.90
20366;DHT22;10341;49.894;8.822;2024-03-23T04:24:08;11.60;99.90
20366;DHT22;10341;49.894;8.822;2024-03-23T04:29:27;11.60;99.90
20366;DHT22;10341;49.894;8.822;2024-03-23T04:34:47;11.60;99.90
20366;DHT22;10341;49.894;8.822;2024-03-23T04:40:07;11.70;99.90
20366;DHT22;10341;49.894;8.822;2024-03-23T04:45:26;11.70;99.90
20366;DHT22;10341;49.894;8.822;2024-03-23T04:50:46;11.60;99.90
20366;DHT22;10341;49.894;8.822;2024-03-23T04:56:06;10.70;99.90
20366;DHT22;10341;49.894;8.822;2024-03-23T05:01:26;10.00;99.90
20366;DHT22;10341;49.894;8.822;2024-03-23T05:06:45;9.50;99.90
20366;DHT22;10341;49.894;8.822;2024-03-23T05:12:05;9.10;99.90
20366;DHT22;10341;49.894;8.822;2024-03-23T05:17:25;8.90;99.90
20366;DHT22;10341;49.894;8.822;2024-03-23T05:22:44;8.60;99.90
20366;DHT22;10341;49.894;8.822;2024-03-23T05:28:04;8.40;99.90
20366;DHT22;10341;49.894;8.822;2024-03-23T05:33:24;8.10;99.90
20366;DHT22;10341;49.894;8.822;2024-03-23T05:38:44;8.00;99.90
20366;DHT22;10341;49.894;8.822;2024-03-23T05:44:04;8.00;99.90
20366;DHT22;10341;49.894;8.822;2024-03-23T05:49:23;7.90;99.90
20366;DHT22;10341;49.894;8.822;2024-03-23T05:54:43;7.80;99.90
20366;DHT22;10341;49.894;8.822;2024-03-23T06:00:03;7.80;99.90
20366;DHT22;10341;49.894;8.822;2024-03-23T06:05:31;7.80;99.90
20366;DHT22;10341;49.894;8.822;2024-03-23T06:10:51;7.80;99.90
20366;DHT22;10341;49.894;8.822;2024-03-23T06:16:11;7.70;99.90
20366;DHT22;10341;49.894;8.822;2024-03-23T06:21:30;7.70;99.90
20366;DHT22;10341;49.894;8.822;2024-03-23T06:26:50;7.70;99.90
20366;DHT22;10341;49.894;8.822;2024-03-23T06:32:09;7.70;99.90
20366;DHT22;10341;49.894;8.822;2024-03-23T06:37:29;7.70;99.90
20366;DHT22;10341;49.894;8.822;2024-03-23T06:42:48;7.80;99.90
20366;DHT22;10341;49.894;8.822;2024-03-23T06:48:08;7.80;99.90
20366;DHT22;10341;49.894;8.822;2024-03-23T06:53:27;7.80;99.90
20366;DHT22;10341;49.894;8.822;2024-03-23T06:58:46;7.60;99.90
20366;DHT22;10341;49.894;8.822;2024-03-23T07:04:05;7.40;99.90
20366;DHT22;10341;49.894;8.822;2024-03-23T07:09:24;7.30;99.90
20366;DHT22;10341;49.894;8.822;2024-03-23T07:14:45;7.30;99.90
20366;DHT22;10341;49.894;8.822;2024-03-23T07:20:05;7.40;99.90
20366;DHT22;10341;49.894;8.822;2024-03-23T07:25:24;7.40;99.90
20366;DHT22;10341;49.894;8.822;2024-03-23T07:30:46;7.50;99.90
20366;DHT22;10341;49.894;8.822;2024-03-23T07:36:05;7.60;99.90
20366;DHT22;10341;49.894;8.822;2024-03-23T07:41:24;7.60;99.90
20366;DHT22;10341;49.894;8.822;2024-03-23T07:46:44;7.60;99.90
20366;DHT22;10341;49.894;8.822;2024-03-23T07:52:04;7.50;99.90
20366;DHT22;10341;49.894;8.822;2024-03-23T07:57:23;7.60;99.90
20366;DHT22;10341;49.894;8.822;2024-03-23T08:02:42;7.90;99.90
20366;DHT22;10341;49.894;8.822;2024-03-23T08:08:02;8.20;99.90
20366;DHT22;10341;49.894;8.822;2024-03-23T08:13:21;8.50;99.90
20366;DHT22;10341;49.894;8.822;2024-03-23T08:18:41;8.70;99.90
20366;DHT22;10341;49.894;8.822;2024-03-23T08:24:01;9.00;99.90
20366;DHT22;10341;49.894;8.822;2024-03-23T08:29:20;9.90;99.90
20366;DHT22;10341;49.894;8.822;2024-03-23T08:34:40;10.30;99.90
20366;DHT22;10341;49.894;8.822;2024-03-23T08:39:59;10.00;99.90
20366;DHT22;10341;49.894;8.822;2024-03-23T08:45:18;9.80;99.90
20366;DHT22;10341;49.894;8.822;2024-03-23T08:50:37;10.20;99.90
20366;DHT22;10341;49.894;8.822;2024-03-23T08:55:57;10.70;99.90
20366;DHT22;10341;49.894;8.822;2024-03-23T09:01:17;11.00;99.90
20366;DHT22;10341;49.894;8.822;2024-03-23T09:06:36;10.80;99.90
20366;DHT22;10341;49.894;8.822;2024-03-23T09:11:56;12.40;99.90
20366;DHT22;10341;49.894;8.822;2024-03-23T09:17:15;14.10;99.90
20366;DHT22;10341;49.894;8.822;2024-03-23T09:22:34;15.00;99.90
20366;DHT22;10341;49.894;8.822;2024-03-23T09:27:54;15.70;99.90
20366;DHT22;10341;49.894;8.822;2024-03-23T09:33:13;17.00;99.90
20366;DHT22;10341;49.894;8.822;2024-03-23T09:38:33;17.80;97.90
20366;DHT22;10341;49.894;8.822;2024-03-23T09:43:53;15.20;98.40
20366;DHT22;10341;49.894;8.822;2024-03-23T09:49:12;13.30;99.90
20366;DHT22;10341;49.894;8.822;2024-03-23T09:54:32;13.10;99.90
20366;DHT22;10341;49.894;8.822;2024-03-23T09:59:51;13.40;99.90
20366;DHT22;10341;49.894;8.822;2024-03-23T10:05:23;14.80;99.90
20366;DHT22;10341;49.894;8.822;2024-03-23T10:10:43;17.00;95.90
20366;DHT22;10341;49.894;8.822;2024-03-23T10:16:03;14.90;97.70
20366;DHT22;10341;49.894;8.822;2024-03-23T10:21:23;14.10;99.20
20366;DHT22;10341;49.894;8.822;2024-03-23T10:26:42;13.10;99.90
20366;DHT22;10341;49.894;8.822;2024-03-23T10:32:12;12.80;99.90
20366;DHT22;10341;49.894;8.822;2024-03-23T10:37:32;13.00;99.90
20366;DHT22;10341;49.894;8.822;2024-03-23T10:42:57;13.80;99.90
20366;DHT22;10341;49.894;8.822;2024-03-23T10:48:17;16.60;96.80
20366;DHT22;10341;49.894;8.822;2024-03-23T10:53:36;15.00;96.30
20366;DHT22;10341;49.894;8.822;2024-03-23T10:58:58;14.40;98.20
20366;DHT22;10341;49.894;8.822;2024-03-23T11:04:34;13.70;99.10
20366;DHT22;10341;49.894;8.822;2024-03-23T11:09:54;13.30;97.30
20366;DHT22;10341;49.894;8.822;2024-03-23T11:15:14;12.00;99.00
20366;DHT22;10341;49.894;8.822;2024-03-23T11:20:34;10.70;99.90
20366;DHT22;10341;49.894;8.822;2024-03-23T11:25:54;10.80;99.90
20366;DHT22;10341;49.894;8.822;2024-03-23T11:31:14;10.50;99.90
20366;DHT22;10341;49.894;8.822;2024-03-23T11:36:34;10.30;99.90
20366;DHT22;10341;49.894;8.822;2024-03-23T11:41:56;11.90;99.90
20366;DHT22;10341;49.894;8.822;2024-03-23T11:47:15;10.70;99.90
20366;DHT22;10341;49.894;8.822;2024-03-23T11:52:36;10.20;99.90
20366;DHT22;10341;49.894;8.822;2024-03-23T11:57:55;9.80;99.90
20366;DHT22;10341;49.894;8.822;2024-03-23T12:03:16;10.10;99.90
20366;DHT22;10341;49.894;8.822;2024-03-23T12:08:36;12.90;99.90
20366;DHT22;10341;49.894;8.822;2024-03-23T12:13:59;14.60;99.90
20366;DHT22;10341;49.894;8.822;2024-03-23T12:19:19;15.00;99.90
20366;DHT22;10341;49.894;8.822;2024-03-23T12:24:38;17.30;97.30
20366;DHT22;10341;49.894;8.822;2024-03-23T12:30:04;18.70;92.10
20366;DHT22;10341;49.894;8.822;2024-03-23T12:35:24;18.60;91.00
20366;DHT22;10341;49.894;8.822;2024-03-23T12:40:50;18.60;90.40
20366;DHT22;10341;49.894;8.822;2024-03-23T12:46:09;19.00;90.00
20366;DHT22;10341;49.894;8.822;2024-03-23T12:51:30;18.60;86.60
20366;DHT22;10341;49.894;8.822;2024-03-23T12:56:49;17.80;86.70
20366;DHT22;10341;49.894;8.822;2024-03-23T13:02:09;16.00;91.30
20366;DHT22;10341;49.894;8.822;2024-03-23T13:07:29;15.20;92.20
20366;DHT22;10341;49.894;8.822;2024-03-23T13:12:48;15.20;93.10
20366;DHT22;10341;49.894;8.822;2024-03-23T13:18:08;13.50;95.20
20366;DHT22;10341;49.894;8.822;2024-03-23T13:23:27;11.50;99.90
20366;DHT22;10341;49.894;8.822;2024-03-23T13:28:47;10.80;99.90
20366;DHT22;10341;49.894;8.822;2024-03-23T13:34:06;9.60;99.90
20366;DHT22;10341;49.894;8.822;2024-03-23T13:39:26;8.90;99.90
20366;DHT22;10341;49.894;8.822;2024-03-23T13:44:46;8.00;99.90
20366;DHT22;10341;49.894;8.822;2024-03-23T13:50:06;7.60;99.90
20366;DHT22;10341;49.894;8.822;2024-03-23T13:55:26;7.90;99.90
20366;DHT22;10341;49.894;8.822;2024-03-23T14:00:46;8.40;99.90
20366;DHT22;10341;49.894;8.822;2024-03-23T14:06:05;8.90;99.90
20366;DHT22;10341;49.894;8.822;2024-03-23T14:11:26;11.40;99.90
20366;DHT22;10341;49.894;8.822;2024-03-23T14:16:48;14.00;99.90
20366;DHT22;10341;49.894;8.822;2024-03-23T14:22:07;13.40;99.90
20366;DHT22;10341;49.894;8.822;2024-03-23T14:27:26;12.10;99.90
20366;DHT22;10341;49.894;8.822;2024-03-23T14:32:46;13.80;99.90
20366;DHT22;10341;49.894;8.822;2024-03-23T14:38:05;16.40;99.90
20366;DHT22;10341;49.894;8.822;2024-03-23T14:43:24;17.60;99.90
20366;DHT22;10341;49.894;8.822;2024-03-23T14:48:44;17.00;99.90
20366;DHT22;10341;49.894;8.822;2024-03-23T14:54:04;14.70;99.90
20366;DHT22;10341;49.894;8.822;2024-03-23T14:59:24;12.90;99.90
20366;DHT22;10341;49.894;8.822;2024-03-23T15:04:43;12.30;99.90
20366;DHT22;10341;49.894;8.822;2024-03-23T15:10:02;13.70;99.90
20366;DHT22;10341;49.894;8.822;2024-03-23T15:15:23;14.60;99.90
20366;DHT22;10341;49.894;8.822;2024-03-23T15:20:52;13.00;99.90
20366;DHT22;10341;49.894;8.822;2024-03-23T15:26:12;11.50;99.90
20366;DHT22;10341;49.894;8.822;2024-03-23T15:31:32;10.90;99.90
20366;DHT22;10341;49.894;8.822;2024-03-23T15:36:51;10.60;99.90
20366;DHT22;10341;49.894;8.822;2024-03-23T15:42:11;12.30;99.90
20366;DHT22;10341;49.894;8.822;2024-03-23T15:47:30;13.50;99.90
20366;DHT22;10341;49.894;8.822;2024-03-23T15:52:49;12.20;99.90
20366;DHT22;10341;49.894;8.822;2024-03-23T15:58:09;10.50;99.90
20366;DHT22;10341;49.894;8.822;2024-03-23T16:03:29;9.70;99.90
20366;DHT22;10341;49.894;8.822;2024-03-23T16:08:49;9.10;99.90
20366;DHT22;10341;49.894;8.822;2024-03-23T16:14:09;8.40;99.90
20366;DHT22;10341;49.894;8.822;2024-03-23T16:19:29;8.30;99.90
20366;DHT22;10341;49.894;8.822;2024-03-23T16:24:48;8.70;99.90
20366;DHT22;10341;49.894;8.822;2024-03-23T16:30:07;9.30;99.90
20366;DHT22;10341;49.894;8.822;2024-03-23T16:35:27;9.70;99.90
20366;DHT22;10341;49.894;8.822;2024-03-23T16:40:56;9.30;99.90
20366;DHT22;10341;49.894;8.822;2024-03-23T16:46:15;8.80;99.90
20366;DHT22;10341;49.894;8.822;2024-03-23T16:51:35;8.60;99.90
20366;DHT22;10341;49.894;8.822;2024-03-23T16:56:54;8.50;99.90
20366;DHT22;10341;49.894;8.822;2024-03-23T17:02:14;8.40;99.90
20366;DHT22;10341;49.894;8.822;2024-03-23T17:07:33;8.10;99.90
20366;DHT22;10341;49.894;8.822;2024-03-23T17:12:51;7.90;99.90
20366;DHT22;10341;49.894;8.822;2024-03-23T17:18:11;7.70;99.90
20366;DHT22;10341;49.894;8.822;2024-03-23T17:23:31;7.70;99.90
20366;DHT22;10341;49.894;8.822;2024-03-23T17:28:50;7.50;99.90
20366;DHT22;10341;49.894;8.822;2024-03-23T17:34:10;7.50;99.90
20366;DHT22;10341;49.894;8.822;2024-03-23T17:39:32;7.40;99.90
20366;DHT22;10341;49.894;8.822;2024-03-23T17:44:52;7.30;99.90
20366;DHT22;10341;49.894;8.822;2024-03-23T17:50:11;7.20;99.90
20366;DHT22;10341;49.894;8.822;2024-03-23T17:55:30;7.10;99.90
20366;DHT22;10341;49.894;8.822;2024-03-23T18:00:50;7.00;99.90
20366;DHT22;10341;49.894;8.822;2024-03-23T18:06:10;6.90;99.90
20366;DHT22;10341;49.894;8.822;2024-03-23T18:11:28;6.80;99.90
20366;DHT22;10341;49.894;8.822;2024-03-23T18:16:48;6.70;99.90
20366;DHT22;10341;49.894;8.822;2024-03-23T18:22:08;6.60;99.90
20366;DHT22;10341;49.894;8.822;2024-03-23T18:27:27;6.50;99.90
20366;DHT22;10341;49.894;8.822;2024-03-23T18:32:46;6.40;99.90
20366;DHT22;10341;49.894;8.822;2024-03-23T18:38:06;6.40;99.90
20366;DHT22;10341;49.894;8.822;2024-03-23T18:43:25;6.40;99.90
20366;DHT22;10341;49.894;8.822;2024-03-23T18:48:46;6.40;99.90
20366;DHT22;10341;49.894;8.822;2024-03-23T18:54:05;6.40;99.90
20366;DHT22;10341;49.894;8.822;2024-03-23T18:59:25;6.40;99.90
20366;DHT22;10341;49.894;8.822;2024-03-23T19:04:46;6.30;99.90
20366;DHT22;10341;49.894;8.822;2024-03-23T19:10:06;6.30;99.90
20366;DHT22;10341;49.894;8.822;2024-03-23T19:15:26;6.20;99.90
20366;DHT22;10341;49.894;8.822;2024-03-23T19:20:53;6.00;99.90
20366;DHT22;10341;49.894;8.822;2024-03-23T19:26:12;5.90;99.90
20366;DHT22;10341;49.894;8.822;2024-03-23T19:31:31;5.90;99.90
20366;DHT22;10341;49.894;8.822;2024-03-23T19:36:52;5.90;99.90
20366;DHT22;10341;49.894;8.822;2024-03-23T19:42:11;6.00;99.90
20366;DHT22;10341;49.894;8.822;2024-03-23T19:47:30;6.00;99.90
20366;DHT22;10341;49.894;8.822;2024-03-23T19:52:50;6.00;99.90
20366;DHT22;10341;49.894;8.822;2024-03-23T19:58:09;6.00;99.90
20366;DHT22;10341;49.894;8.822;2024-03-23T20:03:28;6.00;99.90
20366;DHT22;10341;49.894;8.822;2024-03-23T20:08:48;5.90;99.90
20366;DHT22;10341;49.894;8.822;2024-03-23T20:14:07;5.90;99.90
20366;DHT22;10341;49.894;8.822;2024-03-23T20:19:26;5.80;99.90
20366;DHT22;10341;49.894;8.822;2024-03-23T20:24:47;5.60;99.90
20366;DHT22;10341;49.894;8.822;2024-03-23T20:30:07;5.40;99.90
20366;DHT22;10341;49.894;8.822;2024-03-23T20:35:26;5.40;99.90
20366;DHT22;10341;49.894;8.822;2024-03-23T20:46:13;5.20;99.90
20366;DHT22;10341;49.894;8.822;2024-03-23T20:51:32;5.20;99.90
20366;DHT22;10341;49.894;8.822;2024-03-23T20:56:52;5.10;99.90
20366;DHT22;10341;49.894;8.822;2024-03-23T21:02:11;5.00;99.90
20366;DHT22;10341;49.894;8.822;2024-03-23T21:07:30;4.80;99.90
20366;DHT22;10341;49.894;8.822;2024-03-23T21:12:49;4.80;99.90
20366;DHT22;10341;49.894;8.822;2024-03-23T21:18:08;4.70;99.90
20366;DHT22;10341;49.894;8.822;2024-03-23T21:23:29;4.70;99.90
20366;DHT22;10341;49.894;8.822;2024-03-23T21:28:51;4.60;99.90
20366;DHT22;10341;49.894;8.822;2024-03-23T21:34:11;4.60;99.90
20366;DHT22;10341;49.894;8.822;2024-03-23T21:39:31;4.70;99.90
20366;DHT22;10341;49.894;8.822;2024-03-23T21:44:50;4.60;99.90
20366;DHT22;10341;49.894;8.822;2024-03-23T21:50:09;4.70;99.90
20366;DHT22;10341;49.894;8.822;2024-03-23T21:55:28;4.70;99.90
20366;DHT22;10341;49.894;8.822;2024-03-23T22:00:47;4.70;99.90
20366;DHT22;10341;49.894;8.822;2024-03-23T22:06:06;4.70;99.90
20366;DHT22;10341;49.894;8.822;2024-03-23T22:11:27;4.70;99.90
20366;DHT22;10341;49.894;8.822;2024-03-23T22:16:46;4.70;99.90
20366;DHT22;10341;49.894;8.822;2024-03-23T22:22:06;4.70;99.90
20366;DHT22;10341;49.894;8.822;2024-03-23T22:27:25;4.80;99.90
20366;DHT22;10341;49.894;8.822;2024-03-23T22:32:45;4.90;99.90
20366;DHT22;10341;49.894;8.822;2024-03-23T22:38:05;4.90;99.90
20366;DHT22;10341;49.894;8.822;2024-03-23T22:43:25;5.00;99.90
20366;DHT22;10341;49.894;8.822;2024-03-23T22:48:45;5.00;99.90
20366;DHT22;10341;49.894;8.822;2024-03-23T22:54:05;5.10;99.90
20366;DHT22;10341;49.894;8.822;2024-03-23T22:59:25;5.10;99.90
20366;DHT22;10341;49.894;8.822;2024-03-23T23:04:44;5.20;99.90
20366;DHT22;10341;49.894;8.822;2024-03-23T23:10:04;5.20;99.90
20366;DHT22;10341;49.894;8.822;2024-03-23T23:15:23;5.20;99.90
20366;DHT22;10341;49.894;8.822;2024-03-23T23:20:43;5.30;99.90
20366;DHT22;10341;49.894;8.822;2024-03-23T23:26:02;5.30;99.90
20366;DHT22;10341;49.894;8.822;2024-03-23T23:31:22;5.30;99.90
20366;DHT22;10341;49.894;8.822;2024-03-23T23:36:41;5.30;99.90
20366;DHT22;10341;49.894;8.822;2024-03-23T23:42:00;5.30;99.90
20366;DHT22;10341;49.894;8.822;2024-03-23T23:47:20;5.20;99.90
20366;DHT22;10341;49.894;8.822;2024-03-23T23:52:39;5.20;99.90
20366;DHT22;10341;49.894;8.822;2024-03-23T23:58:00;5.20;99.90
